createdAt,value
2019-04-14T00:02:16.940Z,5.00
2019-04-14T00:04:50.764Z,5.07
2019-04-14T00:07:23.130Z,5.05
2019-04-14T00:09:56.264Z,5.04
2019-04-14T00:12:29.407Z,5.07
2019-04-14T00:15:02.417Z,5.09
2019-04-14T00:17:34.850Z,5.09
2019-04-14T00:20:07.453Z,5.11
2019-04-14T00:22:40.519Z,5.09
2019-04-14T00:25:13.050Z,5.14
2019-04-14T00:27:45.913Z,5.11
2019-04-14T00:30:18.896Z,5.09
2019-04-14T00:32:55.275Z,5.09
2019-04-14T00:35:51.960Z,5.13
2019-04-14T00:38:28.061Z,5.12
2019-04-14T00:41:43.382Z,5.16
2019-04-14T00:44:27.632Z,5.20
2019-04-14T00:47:17.976Z,5.14
2019-04-14T00:49:50.890Z,5.11
2019-04-14T00:52:23.379Z,5.13
2019-04-14T00:54:56.428Z,5.14
2019-04-14T00:57:29.485Z,5.14
2019-04-14T01:00:01.813Z,5.13
2019-04-14T01:02:36.367Z,5.13
2019-04-14T01:05:08.915Z,5.16
2019-04-14T01:07:41.302Z,5.18
2019-04-14T01:10:14.987Z,5.14
2019-04-14T01:12:47.461Z,5.13
2019-04-14T01:15:20.113Z,5.12
2019-04-14T01:17:52.881Z,5.15
2019-04-14T01:20:25.340Z,5.18
2019-04-14T01:22:57.487Z,5.13
2019-04-14T01:25:30.306Z,5.11
2019-04-14T01:28:02.530Z,5.11
2019-04-14T01:30:35.119Z,5.08
2019-04-14T01:33:07.615Z,5.05
2019-04-14T01:35:39.997Z,5.05
2019-04-14T01:38:12.534Z,4.94
2019-04-14T01:40:44.555Z,4.91
2019-04-14T01:43:16.748Z,4.90
2019-04-14T01:45:59.594Z,4.89
2019-04-14T01:48:23.624Z,4.86
2019-04-14T01:51:11.726Z,4.80
2019-04-14T01:53:51.411Z,4.82
2019-04-14T01:56:42.716Z,4.79
2019-04-14T01:59:15.291Z,4.80
2019-04-14T02:01:48.125Z,4.82
2019-04-14T02:04:20.332Z,4.87
2019-04-14T02:06:53.012Z,4.84
2019-04-14T02:09:25.186Z,4.78
2019-04-14T02:11:57.481Z,4.73
2019-04-14T02:14:30.141Z,4.72
2019-04-14T02:17:04.943Z,4.68
2019-04-14T02:19:37.198Z,4.71
2019-04-14T02:22:09.548Z,4.76
2019-04-14T02:24:43.799Z,4.80
2019-04-14T02:27:18.880Z,4.86
2019-04-14T02:29:51.645Z,4.88
2019-04-14T02:32:49.366Z,4.94
2019-04-14T02:38:03.580Z,5.03
2019-04-14T02:40:39.309Z,5.04
2019-04-14T02:43:04.710Z,5.01
2019-04-14T02:48:31.783Z,4.92
2019-04-14T02:50:49.823Z,4.82
2019-04-14T02:55:57.702Z,4.80
2019-04-14T02:58:50.054Z,4.79
2019-04-14T03:03:39.197Z,4.87
2019-04-14T03:06:05.693Z,4.91
2019-04-14T03:11:21.044Z,4.97
2019-04-14T03:13:51.741Z,4.94
2019-04-14T03:16:31.358Z,4.91
2019-04-14T03:19:06.748Z,4.90
2019-04-14T03:22:13.126Z,4.88
2019-04-14T03:24:46.574Z,4.87
2019-04-14T03:30:45.190Z,4.87
2019-04-14T03:33:17.314Z,4.93
2019-04-14T03:35:51.948Z,4.84
2019-04-14T03:38:07.253Z,4.85
2019-04-14T03:40:37.658Z,4.86
2019-04-14T03:43:17.069Z,4.86
2019-04-14T03:50:45.499Z,4.98
2019-04-14T03:56:22.930Z,5.03
2019-04-14T03:58:55.373Z,5.07
2019-04-14T04:01:28.566Z,5.10
2019-04-14T04:04:00.689Z,5.07
2019-04-14T04:06:33.499Z,5.06
2019-04-14T04:09:08.357Z,5.07
2019-04-14T04:11:41.214Z,5.07
2019-04-14T04:14:13.970Z,5.05
2019-04-14T04:17:12.267Z,5.09
2019-04-14T04:19:57.796Z,5.07
2019-04-14T04:22:47.665Z,5.10
2019-04-14T04:25:31.156Z,5.09
2019-04-14T04:28:30.702Z,5.11
2019-04-14T04:31:10.999Z,5.08
2019-04-14T04:33:54.364Z,5.07
2019-04-14T04:36:48.765Z,5.08
2019-04-14T04:39:43.202Z,5.09
2019-04-14T04:42:15.472Z,5.07
2019-04-14T04:44:48.699Z,5.08
2019-04-14T04:47:23.033Z,5.09
2019-04-14T04:49:55.452Z,5.08
2019-04-14T04:52:28.088Z,5.13
2019-04-14T04:55:00.236Z,5.14
2019-04-14T04:57:32.811Z,5.15
2019-04-14T05:00:05.649Z,5.16
2019-04-14T05:02:37.654Z,5.16
2019-04-14T05:06:04.651Z,5.19
2019-04-14T05:08:39.151Z,5.17
2019-04-14T05:11:20.679Z,5.21
2019-04-14T05:13:53.344Z,5.15
2019-04-14T05:16:26.011Z,5.15
2019-04-14T05:19:10.628Z,5.11
2019-04-14T05:21:32.127Z,5.12
2019-04-14T05:24:04.953Z,5.15
2019-04-14T05:26:37.364Z,5.08
2019-04-14T05:29:09.992Z,5.13
2019-04-14T05:31:42.575Z,5.17
2019-04-14T05:34:15.062Z,5.15
2019-04-14T05:36:47.847Z,5.18
2019-04-14T05:39:20.022Z,5.18
2019-04-14T05:42:00.313Z,5.19
2019-04-14T05:44:25.435Z,5.24
2019-04-14T05:46:57.864Z,5.25
2019-04-14T05:49:39.100Z,5.28
2019-04-14T05:52:05.582Z,5.35
2019-04-14T05:54:38.277Z,5.46
2019-04-14T05:57:11.148Z,5.54
2019-04-14T05:59:44.058Z,5.66
2019-04-14T06:02:15.968Z,5.79
2019-04-14T06:04:48.238Z,5.90
2019-04-14T06:07:20.217Z,5.97
2019-04-14T06:09:52.110Z,6.06
2019-04-14T06:12:23.948Z,6.12
2019-04-14T06:14:55.593Z,6.16
2019-04-14T06:17:27.111Z,6.23
2019-04-14T06:19:58.675Z,6.24
2019-04-14T06:22:30.215Z,6.24
2019-04-14T06:25:02.098Z,6.33
2019-04-14T06:27:34.009Z,6.38
2019-04-14T06:30:35.276Z,6.41
2019-04-14T06:33:24.860Z,6.55
2019-04-14T06:36:18.397Z,6.63
2019-04-14T06:38:53.498Z,6.70
2019-04-14T06:41:25.094Z,6.74
2019-04-14T06:43:56.684Z,6.73
2019-04-14T06:46:28.265Z,6.74
2019-04-14T06:48:59.836Z,6.71
2019-04-14T06:51:31.464Z,6.66
2019-04-14T06:54:03.077Z,6.67
2019-04-14T06:56:34.732Z,6.69
2019-04-14T06:59:06.524Z,6.73
2019-04-14T07:01:39.069Z,6.76
2019-04-14T07:04:10.830Z,6.77
2019-04-14T07:06:42.522Z,6.81
2019-04-14T07:09:14.078Z,6.83
2019-04-14T07:11:45.706Z,6.85
2019-04-14T07:14:17.287Z,6.86
2019-04-14T07:16:51.314Z,6.93
2019-04-14T07:19:23.230Z,7.00
2019-04-14T07:21:54.857Z,7.02
2019-04-14T07:24:26.460Z,7.18
2019-04-14T07:26:58.084Z,7.22
2019-04-14T07:29:37.916Z,7.23
2019-04-14T07:32:27.351Z,7.23
2019-04-14T07:35:11.181Z,7.21
2019-04-14T07:37:51.996Z,7.25
2019-04-14T07:40:42.458Z,7.21
2019-04-14T07:43:37.526Z,7.27
2019-04-14T07:46:36.948Z,7.32
2019-04-14T07:49:37.712Z,7.41
2019-04-14T07:52:26.848Z,7.39
2019-04-14T07:55:12.685Z,7.52
2019-04-14T07:57:54.247Z,7.58
2019-04-14T08:00:32.658Z,7.74
2019-04-14T08:03:11.655Z,7.97
2019-04-14T08:05:43.276Z,8.18
2019-04-14T08:08:14.899Z,8.27
2019-04-14T08:10:46.560Z,8.40
2019-04-14T08:13:18.238Z,8.56
2019-04-14T08:15:49.876Z,8.70
2019-04-14T08:18:22.470Z,8.86
2019-04-14T08:20:54.101Z,8.84
2019-04-14T08:23:25.737Z,8.78
2019-04-14T08:25:57.392Z,8.74
2019-04-14T08:28:29.027Z,8.81
2019-04-14T08:31:00.632Z,8.95
2019-04-14T08:33:32.248Z,9.16
2019-04-14T08:36:03.888Z,9.19
2019-04-14T08:38:35.497Z,9.26
2019-04-14T08:41:07.110Z,9.21
2019-04-14T08:43:48.390Z,9.16
2019-04-14T08:46:41.490Z,8.76
2019-04-14T08:49:30.028Z,8.84
2019-04-14T08:52:08.564Z,9.05
2019-04-14T08:54:53.426Z,9.34
2019-04-14T08:57:30.508Z,9.36
2019-04-14T09:00:14.698Z,8.78
2019-04-14T09:03:05.216Z,9.05
2019-04-14T09:05:55.027Z,9.83
2019-04-14T09:08:51.632Z,10.44
2019-04-14T09:11:29.410Z,10.75
2019-04-14T09:14:02.615Z,10.56
2019-04-14T09:16:34.300Z,10.76
2019-04-14T09:19:11.127Z,10.75
2019-04-14T09:21:44.765Z,10.50
2019-04-14T09:24:16.784Z,10.55
2019-04-14T09:26:58.494Z,10.44
2019-04-14T09:29:32.751Z,10.71
2019-04-14T09:32:07.491Z,10.70
2019-04-14T09:34:40.081Z,10.72
2019-04-14T09:37:12.833Z,11.03
2019-04-14T09:39:47.606Z,11.06
2019-04-14T09:42:19.979Z,11.24
2019-04-14T09:44:51.876Z,11.50
2019-04-14T09:47:23.796Z,11.73
2019-04-14T09:49:55.622Z,11.87
2019-04-14T09:52:27.350Z,12.07
2019-04-14T09:54:59.116Z,12.25
2019-04-14T09:57:30.826Z,12.25
2019-04-14T10:00:03.573Z,12.26
2019-04-14T10:02:38.472Z,12.40
2019-04-14T10:05:11.307Z,12.54
2019-04-14T10:07:44.519Z,12.76
2019-04-14T10:10:16.983Z,12.73
2019-04-14T10:12:48.857Z,12.40
2019-04-14T10:15:20.466Z,12.57
2019-04-14T10:17:52.134Z,12.20
2019-04-14T10:20:23.731Z,12.30
2019-04-14T10:22:56.473Z,12.66
2019-04-14T10:25:28.115Z,12.66
2019-04-14T10:27:59.765Z,12.65
2019-04-14T10:30:31.392Z,12.75
2019-04-14T10:33:03.065Z,12.92
2019-04-14T10:35:34.675Z,13.22
2019-04-14T10:38:06.373Z,13.20
2019-04-14T10:40:39.186Z,13.11
2019-04-14T10:43:10.980Z,12.81
2019-04-14T10:45:42.552Z,12.20
2019-04-14T10:48:14.391Z,11.89
2019-04-14T10:50:46.037Z,11.63
2019-04-14T10:53:17.706Z,11.75
2019-04-14T10:55:49.300Z,11.75
2019-04-14T10:58:21.031Z,11.98
2019-04-14T11:00:52.838Z,12.20
2019-04-14T11:03:24.460Z,12.43
2019-04-14T11:06:13.324Z,12.63
2019-04-14T11:08:44.986Z,12.60
2019-04-14T11:11:16.633Z,12.35
2019-04-14T11:13:48.255Z,12.49
2019-04-14T11:16:21.086Z,12.67
2019-04-14T11:18:52.796Z,12.70
2019-04-14T11:21:24.426Z,12.82
2019-04-14T11:23:56.049Z,12.91
2019-04-14T11:26:27.658Z,13.08
2019-04-14T11:28:59.290Z,13.05
2019-04-14T11:31:48.643Z,13.05
2019-04-14T11:34:21.601Z,12.91
2019-04-14T11:37:11.172Z,12.13
2019-04-14T11:39:43.626Z,12.16
2019-04-14T11:42:17.119Z,12.09
2019-04-14T11:44:49.919Z,11.92
2019-04-14T11:47:21.648Z,12.08
2019-04-14T11:49:53.564Z,12.03
2019-04-14T11:52:25.287Z,12.21
2019-04-14T11:54:57.013Z,12.51
2019-04-14T11:57:28.636Z,12.64
2019-04-14T12:00:07.954Z,12.64
2019-04-14T12:02:54.699Z,12.53
2019-04-14T12:05:45.218Z,12.43
2019-04-14T12:08:29.924Z,12.47
2019-04-14T12:11:01.593Z,12.59
2019-04-14T12:13:33.225Z,12.67
2019-04-14T12:16:05.092Z,12.47
2019-04-14T12:18:36.739Z,12.24
2019-04-14T12:21:10.044Z,12.25
2019-04-14T12:23:41.677Z,12.27
2019-04-14T12:26:13.392Z,12.55
2019-04-14T12:28:45.141Z,12.67
2019-04-14T12:31:17.466Z,12.68
2019-04-14T12:33:49.177Z,12.59
2019-04-14T12:36:21.019Z,12.62
2019-04-14T12:38:54.463Z,12.64
2019-04-14T12:41:33.218Z,12.71
2019-04-14T12:44:27.656Z,12.47
2019-04-14T12:47:16.750Z,12.53
2019-04-14T12:49:49.718Z,12.37
2019-04-14T12:52:23.530Z,12.37
2019-04-14T12:54:55.493Z,12.63
2019-04-14T12:57:33.871Z,12.65
2019-04-14T13:00:09.331Z,12.52
2019-04-14T13:02:44.266Z,12.47
2019-04-14T13:05:16.090Z,12.68
2019-04-14T13:07:47.749Z,12.84
2019-04-14T13:10:19.505Z,12.75
2019-04-14T13:12:51.084Z,12.80
2019-04-14T13:15:22.811Z,12.96
2019-04-14T13:17:54.452Z,12.84
2019-04-14T13:20:26.114Z,12.92
2019-04-14T13:22:58.971Z,12.73
2019-04-14T13:25:30.615Z,12.50
2019-04-14T13:28:02.218Z,12.59
2019-04-14T13:30:36.693Z,12.66
2019-04-14T13:33:08.525Z,12.69
2019-04-14T13:35:40.183Z,12.70
2019-04-14T13:38:11.941Z,12.47
2019-04-14T13:40:43.842Z,12.41
2019-04-14T13:43:16.684Z,12.20
2019-04-14T13:45:49.902Z,12.21
2019-04-14T13:48:21.553Z,12.12
2019-04-14T13:50:53.185Z,11.75
2019-04-14T13:53:25.812Z,11.84
2019-04-14T13:55:57.521Z,11.58
2019-04-14T13:58:30.349Z,11.49
2019-04-14T14:01:02.245Z,11.56
2019-04-14T14:03:33.950Z,11.48
2019-04-14T14:06:05.616Z,11.60
2019-04-14T14:08:37.276Z,11.56
2019-04-14T14:11:27.771Z,11.70
2019-04-14T14:14:05.256Z,11.69
2019-04-14T14:16:58.568Z,11.38
2019-04-14T14:19:38.312Z,11.51
2019-04-14T14:22:18.933Z,11.48
2019-04-14T14:24:59.324Z,11.34
2019-04-14T14:27:31.015Z,11.15
2019-04-14T14:30:02.625Z,11.28
2019-04-14T14:32:37.573Z,11.32
2019-04-14T14:35:09.514Z,11.44
2019-04-14T14:37:42.973Z,11.34
2019-04-14T14:40:15.423Z,11.15
2019-04-14T14:42:47.017Z,10.90
2019-04-14T14:45:43.571Z,10.90
2019-04-14T14:48:27.279Z,11.18
2019-04-14T14:51:06.163Z,11.05
2019-04-14T14:53:37.922Z,11.02
2019-04-14T14:56:09.543Z,11.08
2019-04-14T14:58:41.187Z,10.94
2019-04-14T15:01:13.155Z,10.95
2019-04-14T15:03:44.799Z,10.93
2019-04-14T15:06:16.476Z,11.08
2019-04-14T15:08:48.142Z,11.17
2019-04-14T15:11:19.875Z,11.10
2019-04-14T15:13:51.505Z,11.16
2019-04-14T15:16:23.221Z,10.98
2019-04-14T15:18:54.892Z,11.05
2019-04-14T15:21:26.537Z,11.03
2019-04-14T15:23:58.305Z,10.83
2019-04-14T15:26:30.251Z,10.69
2019-04-14T15:29:01.884Z,10.72
2019-04-14T15:31:33.525Z,10.65
2019-04-14T15:34:05.178Z,10.77
2019-04-14T15:36:37.135Z,10.85
2019-04-14T15:39:09.891Z,11.09
2019-04-14T15:41:41.997Z,10.96
2019-04-14T15:44:13.661Z,10.89
2019-04-14T15:46:45.324Z,10.72
2019-04-14T15:49:16.970Z,10.77
2019-04-14T15:51:48.695Z,10.63
2019-04-14T15:54:20.349Z,10.66
2019-04-14T15:57:06.413Z,10.77
2019-04-14T15:59:56.253Z,10.96
2019-04-14T16:03:02.248Z,11.01
2019-04-14T16:05:52.878Z,10.92
2019-04-14T16:08:29.812Z,10.86
2019-04-14T16:11:20.275Z,10.74
2019-04-14T16:14:08.422Z,10.55
2019-04-14T16:16:59.234Z,10.45
2019-04-14T16:19:40.225Z,10.37
2019-04-14T16:22:11.831Z,10.33
2019-04-14T16:24:43.576Z,10.36
2019-04-14T16:27:29.387Z,10.45
2019-04-14T16:30:25.654Z,10.41
2019-04-14T16:33:17.224Z,10.42
2019-04-14T16:35:49.104Z,10.46
2019-04-14T16:38:20.724Z,10.36
2019-04-14T16:40:52.444Z,10.26
2019-04-14T16:43:26.229Z,10.07
2019-04-14T16:45:57.636Z,10.04
2019-04-14T16:48:29.208Z,9.88
2019-04-14T16:51:00.980Z,9.93
2019-04-14T16:53:35.924Z,9.82
2019-04-14T16:56:19.272Z,9.72
2019-04-14T16:58:53.529Z,9.74
2019-04-14T17:01:39.961Z,9.78
2019-04-14T17:04:12.273Z,9.67
2019-04-14T17:06:43.912Z,9.78
2019-04-14T17:09:15.515Z,9.69
2019-04-14T17:11:48.282Z,9.62
2019-04-14T17:14:29.895Z,9.64
2019-04-14T17:17:12.635Z,9.51
2019-04-14T17:20:03.085Z,9.57
2019-04-14T17:23:02.941Z,9.42
2019-04-14T17:25:39.200Z,9.33
2019-04-14T17:28:32.791Z,9.19
2019-04-14T17:31:19.879Z,9.20
2019-04-14T17:34:08.316Z,9.17
2019-04-14T17:36:58.000Z,9.07
2019-04-14T17:39:35.333Z,9.03
2019-04-14T17:42:21.096Z,9.02
2019-04-14T17:45:14.643Z,8.96
2019-04-14T17:47:56.166Z,8.86
2019-04-14T17:50:47.835Z,8.87
2019-04-14T17:53:26.290Z,8.76
2019-04-14T17:56:32.192Z,8.81
2019-04-14T17:59:34.538Z,8.81
2019-04-14T18:02:23.321Z,8.79
2019-04-14T18:05:05.621Z,8.78
2019-04-14T18:07:57.731Z,8.70
2019-04-14T18:10:41.034Z,8.62
2019-04-14T18:13:28.132Z,8.60
2019-04-14T18:16:18.599Z,8.41
2019-04-14T18:19:08.599Z,8.43
2019-04-14T18:21:40.224Z,8.30
2019-04-14T18:24:11.862Z,8.33
2019-04-14T18:26:43.524Z,8.21
2019-04-14T18:29:33.574Z,8.20
2019-04-14T18:32:27.127Z,8.12
2019-04-14T18:35:29.880Z,8.05
2019-04-14T18:38:23.426Z,8.02
2019-04-14T18:41:10.184Z,7.99
2019-04-14T18:43:58.147Z,7.99
2019-04-14T18:46:40.535Z,7.92
2019-04-14T18:49:36.842Z,7.87
2019-04-14T18:52:17.196Z,7.84
2019-04-14T18:55:01.690Z,7.87
2019-04-14T18:57:50.720Z,7.85
2019-04-14T19:00:43.359Z,7.85
2019-04-14T19:03:15.422Z,7.85
2019-04-14T19:05:47.406Z,7.89
2019-04-14T19:08:19.476Z,7.86
2019-04-14T19:11:17.643Z,7.89
2019-04-14T19:13:50.376Z,7.96
2019-04-14T19:16:38.633Z,7.89
2019-04-14T19:19:01.887Z,7.82
2019-04-14T19:21:33.501Z,7.81
2019-04-14T19:24:05.192Z,7.83
2019-04-14T19:26:36.990Z,7.81
2019-04-14T19:29:11.207Z,7.77
2019-04-14T19:31:43.033Z,7.82
2019-04-14T19:34:14.632Z,7.81
2019-04-14T19:36:46.294Z,7.80
2019-04-14T19:39:18.067Z,7.76
2019-04-14T19:41:49.717Z,7.70
2019-04-14T19:44:21.500Z,7.68
2019-04-14T19:46:53.187Z,7.69
2019-04-14T19:49:26.329Z,7.67
2019-04-14T19:51:59.188Z,7.69
2019-04-14T19:54:30.902Z,7.70
2019-04-14T19:57:02.533Z,7.74
2019-04-14T19:59:34.201Z,7.71
2019-04-14T20:02:05.812Z,7.66
2019-04-14T20:04:39.144Z,7.63
2019-04-14T20:07:10.793Z,7.57
2019-04-14T20:09:44.207Z,7.44
2019-04-14T20:12:16.488Z,7.39
2019-04-14T20:14:48.199Z,7.40
2019-04-14T20:17:37.664Z,7.39
2019-04-14T20:20:27.548Z,7.34
2019-04-14T20:23:22.125Z,7.33
2019-04-14T20:26:14.108Z,7.31
2019-04-14T20:28:52.770Z,7.28
2019-04-14T20:31:39.257Z,7.25
2019-04-14T20:34:11.942Z,7.27
2019-04-14T20:36:43.695Z,7.25
2019-04-14T20:39:15.815Z,7.19
2019-04-14T20:41:47.408Z,7.15
2019-04-14T20:44:19.332Z,7.15
2019-04-14T20:46:50.983Z,7.15
2019-04-14T20:49:22.578Z,7.18
2019-04-14T20:51:54.335Z,7.11
2019-04-14T20:54:25.964Z,7.05
2019-04-14T20:56:57.596Z,7.10
2019-04-14T20:59:29.219Z,7.05
2019-04-14T21:02:14.707Z,6.97
2019-04-14T21:04:57.085Z,6.97
2019-04-14T21:07:56.351Z,6.95
2019-04-14T21:10:35.899Z,6.96
2019-04-14T21:13:44.740Z,6.96
2019-04-14T21:16:35.210Z,6.94
2019-04-14T21:19:23.368Z,6.84
2019-04-14T21:22:09.615Z,6.85
2019-04-14T21:25:02.920Z,6.85
2019-04-14T21:27:56.444Z,6.82
2019-04-14T21:30:49.118Z,6.68
2019-04-14T21:33:39.575Z,6.72
2019-04-14T21:36:35.827Z,6.69
2019-04-14T21:39:17.713Z,6.69
2019-04-14T21:41:52.331Z,6.64
2019-04-14T21:44:23.930Z,6.56
2019-04-14T21:46:55.624Z,6.56
2019-04-14T21:49:27.213Z,6.57
2019-04-14T21:52:11.844Z,6.58
2019-04-14T21:54:44.388Z,6.56
2019-04-14T21:57:40.715Z,6.54
2019-04-14T22:00:30.689Z,6.48
2019-04-14T22:03:21.765Z,6.41
2019-04-14T22:06:01.568Z,6.53
2019-04-14T22:08:36.758Z,6.35
2019-04-14T22:11:14.045Z,6.33
2019-04-14T22:13:45.639Z,6.37
2019-04-14T22:16:17.217Z,6.36
2019-04-14T22:18:49.070Z,6.30
2019-04-14T22:21:20.672Z,6.30
2019-04-14T22:24:01.336Z,6.28
2019-04-14T22:26:26.556Z,6.31
2019-04-14T22:28:58.263Z,6.28
2019-04-14T22:31:29.902Z,6.24
2019-04-14T22:34:01.467Z,6.22
2019-04-14T22:36:34.169Z,6.15
2019-04-14T22:39:08.541Z,6.19
2019-04-14T22:41:41.514Z,6.19
2019-04-14T22:44:13.106Z,6.19
2019-04-14T22:46:44.714Z,6.18
2019-04-14T22:49:16.357Z,6.18
2019-04-14T22:51:47.947Z,6.13
2019-04-14T22:54:21.387Z,6.13
2019-04-14T22:56:53.253Z,6.15
2019-04-14T22:59:24.850Z,6.15
2019-04-14T23:02:04.044Z,6.16
2019-04-14T23:04:53.078Z,6.08
2019-04-14T23:07:36.264Z,6.07
2019-04-14T23:10:29.575Z,6.08
2019-04-14T23:13:08.874Z,6.06
2019-04-14T23:16:05.206Z,5.96
2019-04-14T23:18:52.025Z,5.85
2019-04-14T23:21:42.452Z,5.79
2019-04-14T23:24:19.407Z,5.78
2019-04-14T23:26:52.827Z,5.74
2019-04-14T23:29:24.412Z,5.70
2019-04-14T23:31:56.340Z,5.71
2019-04-14T23:34:28.240Z,5.62
2019-04-14T23:36:59.829Z,5.66
2019-04-14T23:39:31.428Z,5.71
2019-04-14T23:42:03.064Z,5.69
2019-04-14T23:44:34.652Z,5.58
2019-04-14T23:47:06.291Z,5.53
2019-04-14T23:49:37.958Z,5.55
2019-04-14T23:52:09.930Z,5.55
2019-04-14T23:54:41.503Z,5.57
2019-04-14T23:57:13.451Z,5.57
2019-04-14T23:59:45.050Z,5.49
